Time;durP1;ratioP1;P1;durP2;ratioP2;P2;SDS_P1;SDS_P2;PMS_P1;PMS_P2;Temp;Humidity;BMP_temperature;BMP_pressure;BME280_temperature;BME280_humidity;BME280_pressure;Samples;Min_cycle;Max_cycle;Signal;HPM_P1;HPM_P2
2023/09/27 00:30:30;;;;;;;2.12;1.90;;;;;;;16.52;60.09;100402.78;5355140;26;20858;-96
2023/09/27 00:33:06;;;;;;;0.17;0.17;;;;;;;16.43;60.08;100408.47;5337334;26;20696;-96
2023/09/27 00:35:37;;;;;;;0.47;0.45;;;;;;;16.52;60.09;100394.91;5338328;26;20492;-96
2023/09/27 01:27:39;;;;;;;0.75;0.57;;;;;;;16.48;60.08;100411.75;5205500;27;21178;31
2023/09/27 01:30:22;;;;;;;1.08;0.55;;;;;;;16.59;60.09;100406.87;5247724;27;20022;-96
2023/09/27 01:49:00;;;;;;;;;;;;;;;;;;;;;
2023/09/27 01:51:56;;;;;;;;;;;;;;;;;;;;;
2023/09/27 01:54:36;;;;;;;0.65;0.43;;;;;;;16.39;60.07;100406.91;5384184;26;35328;-96
2023/09/27 02:01:27;;;;;;;;;;;;;;;;;;;;;
2023/09/27 02:26:53;;;;;;;2.37;0.95;;;;;;;16.43;60.08;100416.37;5323127;26;20086;-96
2023/09/27 02:29:29;;;;;;;0.00;0.00;;;;;;;16.36;60.07;100407.06;5311273;26;20048;-96
2023/09/27 02:31:54;;;;;;;0.43;0.35;;;;;;;16.22;60.06;100412.94;5292853;26;20057;-95
2023/09/27 02:34:29;;;;;;;0.98;0.98;;;;;;;16.20;60.07;100410.37;5289733;26;20067;-96
2023/09/27 02:37:00;;;;;;;0.57;0.57;;;;;;;16.26;60.07;100406.59;5292595;26;20028;-96
2023/09/27 02:39:26;;;;;;;1.30;1.00;;;;;;;16.14;60.06;100415.91;5290564;26;20127;-96
2023/09/27 02:41:58;;;;;;;0.30;0.30;;;;;;;16.24;60.06;100411.09;5308769;26;20052;-95
2023/09/27 02:44:29;;;;;;;1.05;0.37;;;;;;;16.28;60.07;100405.63;5290169;26;20057;-96
2023/09/27 02:46:55;;;;;;;0.52;0.52;;;;;;;16.27;60.07;100409.16;5326873;26;20108;-96
2023/09/27 02:49:20;;;;;;;0.35;0.35;;;;;;;16.31;60.06;100401.12;5309845;26;20052;-96
2023/09/27 02:51:53;;;;;;;0.15;0.15;;;;;;;16.27;60.07;100400.44;5290487;26;20074;-96
2023/09/27 02:54:19;;;;;;;0.35;0.35;;;;;;;16.30;60.07;100404.69;5292265;26;20088;-95
2023/09/27 02:56:45;;;;;;;1.17;0.77;;;;;;;16.22;60.07;100405.91;5289888;26;20017;-96
2023/09/27 02:59:26;;;;;;;0.65;0.65;;;;;;;16.28;60.07;100407.38;5291401;26;20113;-96
2023/09/27 03:01:51;;;;;;;1.70;1.33;;;;;;;16.31;60.07;100416.91;5357715;26;20057;-96
2023/09/27 03:04:17;;;;;;;0.60;0.60;;;;;;;16.36;60.07;100418.44;5298613;26;20052;-96
2023/09/27 03:06:43;;;;;;;3.70;1.35;;;;;;;16.54;60.08;100411.47;5292742;26;20028;-95
2023/09/27 03:09:08;;;;;;;0.30;0.20;;;;;;;16.47;60.09;100410.03;5290253;26;20076;-96
2023/09/27 03:11:37;;;;;;;0.75;0.57;;;;;;;16.50;60.08;100404.62;5290343;26;20068;-96
2023/09/27 03:14:10;;;;;;;1.55;1.23;;;;;;;16.37;60.07;100411.41;5294628;26;20603;-96
2023/09/27 03:16:42;;;;;;;1.95;1.30;;;;;;;16.35;60.07;100405.34;5317970;26;20048;-96
2023/09/27 03:19:14;;;;;;;0.13;0.13;;;;;;;16.30;60.07;100412.56;5327022;26;20094;-96
2023/09/27 03:22:46;;;;;;;;;;;;;;;;;;;;;
2023/09/27 03:29:12;;;;;;;0.62;0.62;;;;;;;16.42;60.08;100405.00;5165464;27;20074;-96
2023/09/27 03:32:07;;;;;;;0.40;0.40;;;;;;;16.58;60.09;100405.16;5168409;27;20054;-96
2023/09/27 04:06:22;;;;;;;;;;;;;;;;;;;;;
2023/09/27 04:09:35;;;;;;;;;;;;;;;;;;;;;
2023/09/27 04:12:02;;;;;;;0.20;0.15;;;;;;;16.60;60.08;100403.31;5118011;28;36345;-95
2023/09/27 04:14:31;;;;;;;0.47;0.47;;;;;;;16.50;60.08;100400.25;5113205;28;20807;-96
2023/09/27 04:17:00;;;;;;;0.23;0.23;;;;;;;16.37;60.07;100404.38;5146643;27;20641;-96
2023/09/27 04:19:28;;;;;;;0.43;0.32;;;;;;;16.45;60.07;100406.63;5212586;27;20176;-96
2023/09/27 04:21:54;;;;;;;0.22;0.22;;;;;;;16.50;60.08;100410.75;5225540;27;20718;-96
2023/09/27 04:24:23;;;;;;;0.17;0.05;;;;;;;16.42;60.08;100402.38;5223305;27;20076;-96
2023/09/27 04:27:15;;;;;;;5.32;2.55;;;;;;;16.47;60.08;100408.25;5238453;27;20064;-96
2023/09/27 04:30:39;;;;;;;0.17;0.17;;;;;;;16.50;60.08;100405.50;5251904;27;20025;-96
2023/09/27 04:33:01;;;;;;;0.10;0.10;;;;;;;16.45;60.08;100417.16;5256863;27;20049;-96
2023/09/27 04:35:27;;;;;;;0.47;0.47;;;;;;;16.40;60.08;100424.38;5265363;27;20038;-96
2023/09/27 04:38:01;;;;;;;1.10;1.00;;;;;;;16.41;60.08;100428.72;5245426;27;20046;-96
2023/09/27 04:40:55;;;;;;;1.10;0.98;;;;;;;16.39;60.07;100422.69;5240748;27;20431;-96
2023/09/27 04:43:23;;;;;;;0.90;0.52;;;;;;;16.35;60.07;100421.13;5257284;27;20053;-96
2023/09/27 04:45:51;;;;;;;0.50;0.50;;;;;;;16.39;60.07;100423.53;5256353;27;20122;-96
2023/09/27 04:48:17;;;;;;;0.20;0.20;;;;;;;16.41;60.08;100420.84;5255333;27;20042;-96
2023/09/27 04:50:53;;;;;;;2.22;1.65;;;;;;;16.63;60.09;100421.56;5283489;26;20106;-96
2023/09/27 04:53:19;;;;;;;1.23;0.98;;;;;;;16.42;60.08;100430.44;5311692;26;20030;-96
2023/09/27 04:55:45;;;;;;;1.00;0.75;;;;;;;16.40;60.08;100430.50;5295882;26;20060;-96
2023/09/27 04:58:13;;;;;;;0.73;0.73;;;;;;;16.35;60.07;100426.38;5297723;26;20071;-96
2023/09/27 05:01:15;;;;;;;0.45;0.30;;;;;;;16.37;60.07;100421.91;5321438;27;20041;-96
2023/09/27 05:07:13;;;;;;;1.27;0.45;;;;;;;16.39;60.07;100433.19;5365223;26;20031;-96
2023/09/27 05:10:41;;;;;;;2.20;0.47;;;;;;;16.60;60.08;100432.22;5293039;27;20120;-96
2023/09/27 05:13:34;;;;;;;0.85;0.60;;;;;;;16.55;60.09;100428.94;5255702;26;20072;-96
2023/09/27 05:16:34;;;;;;;7.05;1.27;;;;;;;16.51;60.08;100428.22;5375138;26;20032;-96
2023/09/27 05:22:55;;;;;;;2.22;0.57;;;;;;;16.52;60.08;100439.59;5367305;26;20077;-96
2023/09/27 05:26:02;;;;;;;0.30;0.27;;;;;;;16.56;60.09;100436.78;5332767;26;20036;-96
2023/09/27 05:32:46;;;;;;;0.30;0.30;;;;;;;16.93;60.11;100434.22;5362275;26;20035;-96
2023/09/27 05:36:35;;;;;;;20.27;1.98;;;;;;;16.81;60.10;100452.31;5355798;26;20035;-96
2023/09/27 05:42:54;;;;;;;1.05;0.95;;;;;;;17.01;60.11;100440.81;5362567;26;20092;-96
2023/09/27 05:49:09;;;;;;;0.40;0.37;;;;;;;17.36;60.13;100438.28;5361908;26;20035;-96
2023/09/27 05:52:27;;;;;;;1.08;0.73;;;;;;;17.49;60.14;100440.22;5344288;26;20065;-96
2023/09/27 05:56:03;;;;;;;0.57;0.57;;;;;;;17.58;60.14;100438.06;5346066;26;20041;-96
2023/09/27 05:58:44;;;;;;;0.35;0.35;;;;;;;17.75;60.14;100444.25;5338147;26;20031;-96
2023/09/27 06:04:39;;;;;;;0.43;0.43;;;;;;;18.31;60.17;100447.50;5359236;26;20084;-96
2023/09/27 06:11:26;;;;;;;1.65;0.90;;;;;;;18.60;60.19;100456.50;5208719;27;20209;-96
2023/09/27 06:13:56;;;;;;;0.55;0.55;;;;;;;18.78;60.21;100454.69;5208480;27;20035;-96
2023/09/27 06:17:10;;;;;;;0.35;0.35;;;;;;;18.89;60.21;100449.66;5191780;27;20083;-96
2023/09/27 06:22:49;;;;;;;0.40;0.40;;;;;;;19.25;60.23;100455.53;5193143;27;20108;-96
2023/09/27 06:25:46;;;;;;;1.75;0.52;;;;;;;19.40;60.24;100452.94;5207691;27;20041;-96
2023/09/27 06:28:59;;;;;;;0.50;0.50;;;;;;;19.53;60.24;100465.38;5283921;27;20079;-96
2023/09/27 06:31:31;;;;;;;0.47;0.45;;;;;;;19.67;60.25;100476.97;5312874;26;20085;-96
2023/09/27 06:34:19;;;;;;;1.02;0.98;;;;;;;20.01;60.26;100475.81;5315850;27;20048;-96
2023/09/27 06:37:13;;;;;;;;;;;;;;;20.00;60.25;100471.47;5278850;27;20051;-96
2023/09/27 06:39:50;;;;;;;0.28;0.28;;;;;;;20.16;60.27;100474.91;5297033;27;19971;-96
2023/09/27 06:42:32;;;;;;;1.17;1.08;;;;;;;20.33;60.28;100477.37;5340370;26;20032;-96
2023/09/27 06:45:04;;;;;;;0.37;0.37;;;;;;;20.46;60.28;100478.38;5341635;26;20055;-96
2023/09/27 06:47:49;;;;;;;2.33;1.25;;;;;;;20.61;60.29;100481.88;5361224;26;20016;-96
2023/09/27 06:50:46;;;;;;;1.70;1.23;;;;;;;20.72;60.30;100487.31;5341242;26;20048;-96
2023/09/27 06:53:33;;;;;;;1.05;1.05;;;;;;;20.93;60.31;100493.06;5315899;27;20048;-96
2023/09/27 06:56:17;;;;;;;1.20;0.80;;;;;;;21.10;60.33;100495.50;5293778;27;20017;-96
2023/09/27 06:58:54;;;;;;;0.52;0.40;;;;;;;21.21;60.33;100491.31;5292924;26;20024;-96
2023/09/27 07:01:30;;;;;;;1.20;0.60;;;;;;;21.34;60.33;100487.81;5315263;27;20069;-96
2023/09/27 07:04:14;;;;;;;0.98;0.98;;;;;;;21.53;60.35;100483.94;5249391;27;20050;-96
2023/09/27 07:06:45;;;;;;;1.00;0.40;;;;;;;21.89;60.37;100480.66;5208794;27;20745;-96
2023/09/27 07:09:20;;;;;;;0.17;0.17;;;;;;;22.16;60.38;100478.81;5211530;27;20144;-96
2023/09/27 07:11:53;;;;;;;1.37;0.85;;;;;;;22.21;60.38;100483.81;5228381;27;20128;-96
2023/09/27 07:14:20;;;;;;;0.20;0.20;;;;;;;22.38;60.39;100480.84;5223216;27;20960;-96
2023/09/27 07:16:46;;;;;;;0.20;0.20;;;;;;;22.52;60.40;100482.56;5204101;27;20068;-96
2023/09/27 07:19:34;;;;;;;0.65;0.40;;;;;;;22.64;60.40;100484.31;5189081;27;20067;-96
2023/09/27 07:22:08;;;;;;;0.98;0.98;;;;;;;22.55;60.39;100491.13;5224878;27;20088;-96
2023/09/27 07:24:40;;;;;;;0.25;0.25;;;;;;;22.65;60.41;100486.03;5190864;27;20048;-96
2023/09/27 07:27:07;;;;;;;0.57;0.57;;;;;;;22.88;60.41;100484.44;5185982;27;20027;-96
2023/09/27 07:29:34;;;;;;;0.43;0.43;;;;;;;22.95;60.41;100488.34;5181535;27;20134;-96
2023/09/27 07:32:00;;;;;;;0.62;0.62;;;;;;;23.05;60.44;100483.22;5186433;27;20035;-96
2023/09/27 07:34:27;;;;;;;0.10;0.10;;;;;;;23.02;60.42;100491.41;5213772;27;20058;-96
2023/09/27 07:36:54;;;;;;;0.10;0.10;;;;;;;23.24;60.43;100497.72;5244242;27;20884;-95
2023/09/27 07:39:22;;;;;;;4.70;1.48;;;;;;;23.23;60.43;100488.06;5266360;27;20073;-96
2023/09/27 07:41:56;;;;;;;1.12;0.68;;;;;;;23.25;60.43;100495.91;5248852;27;20113;-96
2023/09/27 07:44:27;;;;;;;0.40;0.40;;;;;;;23.22;60.43;100496.12;5245649;27;20103;-96
2023/09/27 07:46:53;;;;;;;2.15;1.40;;;;;;;23.35;60.43;100499.59;5244042;27;20025;-96
2023/09/27 07:49:27;;;;;;;0.20;0.20;;;;;;;23.60;60.45;100493.34;5247606;27;20103;-96
2023/09/27 07:51:53;;;;;;;1.00;0.80;;;;;;;23.66;60.45;100502.66;5266639;27;20038;-96
2023/09/27 07:54:22;;;;;;;0.28;0.28;;;;;;;23.73;60.46;100496.78;5264674;27;20181;-96
2023/09/27 07:56:48;;;;;;;3.60;1.33;;;;;;;23.83;60.47;100503.09;5248289;27;20028;-96
2023/09/27 07:59:14;;;;;;;1.48;0.25;;;;;;;23.90;60.47;100495.53;5250066;27;20065;-96
2023/09/27 08:01:41;;;;;;;1.98;1.05;;;;;;;23.84;60.47;100491.50;5247727;27;20099;-96
2023/09/27 08:04:14;;;;;;;0.45;0.28;;;;;;;23.97;60.47;100506.53;5290040;27;20080;-96
2023/09/27 08:06:45;;;;;;;4.57;0.40;;;;;;;24.05;60.47;100499.66;5308168;27;20067;-96
2023/09/27 08:09:21;;;;;;;6.87;0.88;;;;;;;24.12;60.49;100495.56;5329084;27;20025;-96
2023/09/27 08:11:47;;;;;;;4.85;1.92;;;;;;;24.42;60.49;100500.38;5290504;27;20039;-96
2023/09/27 08:14:15;;;;;;;0.88;0.88;;;;;;;24.35;60.49;100504.47;5270499;27;20391;-96
2023/09/27 08:16:47;;;;;;;0.62;0.62;;;;;;;24.62;60.51;100500.66;5291091;27;20135;-96
2023/09/27 08:19:15;;;;;;;0.73;0.55;;;;;;;24.61;60.51;100513.09;5307582;27;20104;-96
2023/09/27 08:21:41;;;;;;;0.62;0.62;;;;;;;24.52;60.51;100508.47;5289091;27;20426;-96
2023/09/27 08:24:07;;;;;;;0.32;0.25;;;;;;;24.62;60.51;100512.16;5288341;27;20107;-96
2023/09/27 08:26:40;;;;;;;2.65;1.37;;;;;;;24.62;60.51;100516.62;5309809;27;20789;-96
2023/09/27 08:29:09;;;;;;;0.10;0.10;;;;;;;24.94;60.53;100509.59;5333278;27;20025;-96
2023/09/27 08:31:37;;;;;;;1.02;0.93;;;;;;;24.87;60.52;100516.38;5289685;27;20068;-96
2023/09/27 08:34:04;;;;;;;4.07;0.55;;;;;;;25.00;60.53;100509.13;5288517;27;20044;-96
2023/09/27 08:36:30;;;;;;;0.80;0.35;;;;;;;25.02;60.53;100506.31;5286950;27;20066;-96
2023/09/27 08:38:57;;;;;;;0.32;0.32;;;;;;;25.00;60.53;100508.28;5273010;27;20032;-96
2023/09/27 08:41:26;;;;;;;5.28;0.55;;;;;;;25.03;60.53;100506.19;5329429;26;20030;-96
2023/09/27 08:43:51;;;;;;;0.40;0.35;;;;;;;25.07;60.52;100512.13;5307625;27;20681;-96
2023/09/27 08:46:20;;;;;;;2.17;2.05;;;;;;;25.30;60.54;100510.28;5268714;27;20070;-96
2023/09/27 08:48:46;;;;;;;0.30;0.30;;;;;;;25.21;60.54;100513.69;5289064;27;20100;-96
2023/09/27 08:51:13;;;;;;;0.30;0.30;;;;;;;25.33;60.55;100515.37;5288741;27;20107;-96
2023/09/27 08:53:42;;;;;;;0.28;0.28;;;;;;;25.30;60.54;100510.28;5289600;27;20068;-96
2023/09/27 08:56:07;;;;;;;2.00;1.83;;;;;;;25.52;60.55;100512.88;5291467;27;20028;-96
2023/09/27 08:58:35;;;;;;;1.85;1.65;;;;;;;25.54;60.55;100508.25;5288111;27;20098;-96
2023/09/27 09:01:00;;;;;;;1.15;0.75;;;;;;;25.55;60.56;100525.09;5289609;27;20065;-96
2023/09/27 09:03:26;;;;;;;1.45;1.10;;;;;;;25.51;60.55;100505.00;5288159;27;20127;-96
2023/09/27 09:05:53;;;;;;;0.93;0.93;;;;;;;25.59;60.56;100511.41;5289490;27;20056;-96
2023/09/27 09:08:19;;;;;;;0.28;0.28;;;;;;;25.68;60.57;100507.16;5295210;27;20059;-96
2023/09/27 09:10:46;;;;;;;0.40;0.40;;;;;;;25.65;60.56;100507.41;5302178;27;20087;-96
2023/09/27 09:13:15;;;;;;;0.90;0.90;;;;;;;25.93;60.58;100503.28;5293385;27;20028;-96
2023/09/27 09:15:53;;;;;;;1.05;1.02;;;;;;;26.00;60.58;100496.47;5292349;27;20417;-96
2023/09/27 09:18:32;;;;;;;0.43;0.43;;;;;;;26.45;60.60;100497.06;5306760;27;20028;-96
2023/09/27 09:21:21;;;;;;;1.37;1.23;;;;;;;26.29;60.60;100491.34;5326366;27;20125;-96
2023/09/27 09:23:53;;;;;;;3.45;1.27;;;;;;;26.27;60.60;100485.28;5295000;27;20075;-96
2023/09/27 09:26:28;;;;;;;1.50;1.40;;;;;;;26.34;60.60;100490.94;5272366;27;20100;-96
2023/09/27 09:29:00;;;;;;;1.15;0.65;;;;;;;26.29;60.60;100491.34;5268761;27;20025;-96
2023/09/27 09:31:27;;;;;;;4.75;1.58;;;;;;;26.57;60.62;100492.50;5269842;27;20064;-96
2023/09/27 09:34:11;;;;;;;0.82;0.82;;;;;;;26.52;60.61;100484.87;5287074;27;20064;-96
2023/09/27 09:36:41;;;;;;;1.10;1.00;;;;;;;26.60;60.62;100492.22;5286855;27;20945;-96
2023/09/27 09:39:40;;;;;;;0.15;0.15;;;;;;;26.66;60.62;100491.66;5272184;27;20070;-96
2023/09/27 09:42:30;;;;;;;1.67;1.37;;;;;;;26.82;60.63;100483.16;5285381;27;20053;-96
2023/09/27 09:45:12;;;;;;;0.52;0.52;;;;;;;26.89;60.63;100485.16;5305885;27;20056;-96
2023/09/27 09:47:43;;;;;;;0.52;0.52;;;;;;;26.93;60.63;100475.03;5265114;27;20920;-96
2023/09/27 09:50:22;;;;;;;0.65;0.60;;;;;;;26.90;60.64;100477.97;5269281;27;20495;-96
2023/09/27 09:53:14;;;;;;;0.13;0.13;;;;;;;26.94;60.63;100474.06;5269550;27;20113;-96
2023/09/27 09:55:56;;;;;;;;;;;;;;;;;;;;;
2023/09/27 09:58:54;;;;;;;;;;;;;;;;;;;;;
2023/09/27 10:01:21;;;;;;;0.62;0.52;;;;;;;27.39;60.65;100468.25;5306928;27;36014;-96
2023/09/27 10:04:59;;;;;;;;;;;;;;;;;;;;;
2023/09/27 10:10:22;;;;;;;0.05;0.05;;;;;;;27.72;60.67;100472.41;5323840;27;20100;-96
2023/09/27 10:13:14;;;;;;;;;;;;;;;;;;;;;
2023/09/27 10:16:25;;;;;;;0.75;0.62;;;;;;;27.86;60.68;100460.41;5307675;27;35545;-96
2023/09/27 10:19:22;;;;;;;0.70;0.70;;;;;;;28.17;60.69;100456.56;5298717;27;20061;-96
2023/09/27 10:22:37;;;;;;;0.43;0.40;;;;;;;28.32;60.71;100456.94;5270563;27;20032;-96
2023/09/27 10:25:50;;;;;;;0.82;0.50;;;;;;;28.46;60.71;100461.84;5242561;27;20396;-96
2023/09/27 10:29:16;;;;;;;;;;;;;;;;;;;;;
2023/09/27 10:33:03;;;;;;;0.62;0.57;;;;;;;28.79;60.73;100454.22;5321386;27;36266;-96
2023/09/27 10:36:20;;;;;;;;;;;;;;;;;;;;;
2023/09/27 10:42:13;;;;;;;;;;;;;;;;;;;;;
2023/09/27 10:47:41;;;;;;;0.62;0.62;;;;;;;29.26;60.76;100442.38;5194708;27;20101;-97
2023/09/27 10:50:50;;;;;;;;;;;;;;;;;;;;;
2023/09/27 10:53:43;;;;;;;0.68;0.68;;;;;;;29.41;60.75;100429.28;5225276;27;37297;-96
2023/09/27 10:56:32;;;;;;;0.60;0.60;;;;;;;29.68;60.77;100428.38;5269467;27;20110;-96
2023/09/27 10:59:47;;;;;;;0.52;0.40;;;;;;;29.64;60.77;100427.00;5274997;27;20035;-96
2023/09/27 11:05:47;;;;;;;13.20;1.15;;;;;;;29.50;60.77;100406.09;5285040;27;20036;-96
2023/09/27 11:08:53;;;;;;;11.00;1.50;;;;;;;29.66;60.78;100405.38;5312118;27;20068;-96
2023/09/27 11:12:10;;;;;;;;;;;;;;;;;;;;;
2023/09/27 11:14:59;;;;;;;0.10;0.10;;;;;;;29.95;60.79;100395.19;5288782;27;35637;-96
2023/09/27 11:17:57;;;;;;;0.50;0.45;;;;;;;30.01;60.79;100391.84;5337674;27;20049;-96
2023/09/27 11:20:41;;;;;;;0.93;0.90;;;;;;;30.06;60.80;100392.28;5316521;27;20029;-96
2023/09/27 11:23:40;;;;;;;0.80;0.80;;;;;;;29.99;60.79;100385.81;5252900;27;20027;-96
2023/09/27 11:26:24;;;;;;;0.82;0.82;;;;;;;30.03;60.79;100381.84;5255619;27;20026;-96
2023/09/27 11:29:14;;;;;;;0.85;0.85;;;;;;;30.12;60.81;100383.59;5251284;27;20064;-96
2023/09/27 11:32:06;;;;;;;1.20;0.93;;;;;;;30.17;60.80;100378.56;5265286;27;20070;-96
2023/09/27 11:34:38;;;;;;;10.30;1.10;;;;;;;30.22;60.81;100378.91;5249897;27;20040;-96
2023/09/27 11:38:02;;;;;;;;;;;;;;;;;;;;;
2023/09/27 11:40:34;;;;;;;0.52;0.52;;;;;;;30.45;60.82;100371.12;5243691;27;35602;-96
2023/09/27 11:44:01;;;;;;;;;;;;;;;;;;;;;
2023/09/27 11:47:20;;;;;;;0.45;0.45;;;;;;;30.50;60.81;100370.62;5231035;27;35808;-96
2023/09/27 11:50:03;;;;;;;0.85;0.85;;;;;;;30.22;60.81;100365.50;5213825;27;20046;-96
2023/09/27 11:53:10;;;;;;;0.85;0.73;;;;;;;30.42;60.82;100355.34;5210567;27;20045;-96
2023/09/27 11:56:20;;;;;;;0.22;0.22;;;;;;;30.28;60.82;100355.09;5267978;27;20026;-96
2023/09/27 12:02:58;;;;;;;0.40;0.30;;;;;;;30.57;60.82;100347.50;5239460;27;20113;-96
2023/09/27 12:05:59;;;;;;;1.12;1.02;;;;;;;30.30;60.82;100350.44;5223633;27;20101;-96
2023/09/27 12:08:28;;;;;;;1.00;0.40;;;;;;;30.28;60.82;100342.50;5121833;27;3178335;-96
2023/09/27 12:11:02;;;;;;;1.92;1.67;;;;;;;30.40;60.82;100340.41;5220466;27;20058;-96
2023/09/27 12:13:31;;;;;;;2.65;1.95;;;;;;;30.55;60.82;100342.31;5258467;27;20053;-96
2023/09/27 12:16:24;;;;;;;0.60;0.57;;;;;;;30.50;60.82;100338.41;5285465;27;20095;-96
2023/09/27 12:18:55;;;;;;;1.08;1.00;;;;;;;30.43;60.82;100337.38;5308095;27;20700;-96
2023/09/27 12:21:35;;;;;;;;;;;;;;;;;;;;;
2023/09/27 12:24:10;;;;;;;;;;;;;;;30.62;60.83;100325.56;5305410;27;35527;-96
2023/09/27 12:27:24;;;;;;;0.57;0.57;;;;;;;30.49;60.82;100331.34;5305655;27;19968;-96
2023/09/27 12:33:08;;;;;;;0.47;0.47;;;;;;;30.45;60.82;100322.78;5282718;27;20046;-96
2023/09/27 12:35:34;;;;;;;1.40;0.47;;;;;;;30.13;60.81;100326.19;5285089;27;20041;-96
2023/09/27 12:38:33;;;;;;;0.98;0.70;;;;;;;30.20;60.81;100327.22;5285718;27;20040;-96
2023/09/27 12:41:03;;;;;;;1.08;0.82;;;;;;;30.14;60.81;100324.34;5304062;27;20064;-96
2023/09/27 12:43:29;;;;;;;5.57;1.95;;;;;;;30.02;60.80;100317.53;5285122;27;20056;-96
2023/09/27 12:45:57;;;;;;;0.62;0.62;;;;;;;30.10;60.81;100313.09;5267367;27;20084;-96
2023/09/27 12:51:44;;;;;;;;;;;;;;;;;;;;;
2023/09/27 12:54:28;;;;;;;1.67;0.98;;;;;;;30.23;60.81;100302.72;5288218;27;35111;-96
2023/09/27 12:57:20;;;;;;;0.47;0.47;;;;;;;30.43;60.81;100289.03;5267275;27;20102;-96
2023/09/27 13:03:09;;;;;;;0.50;0.50;;;;;;;30.33;60.81;100293.72;5253440;27;20056;-96
2023/09/27 13:06:03;;;;;;;0.08;0.08;;;;;;;30.28;60.82;100296.03;5258621;27;20058;-96
2023/09/27 13:08:32;;;;;;;0.68;0.68;;;;;;;30.14;60.81;100284.06;5257897;27;20071;-96
2023/09/27 13:10:57;;;;;;;0.55;0.43;;;;;;;29.84;60.79;100288.09;5223224;27;20085;-96
2023/09/27 13:13:53;;;;;;;;;;;;;;;;;;;;;
2023/09/27 13:16:28;;;;;;;1.20;0.80;;;;;;;30.02;60.80;100278.09;5258203;27;36287;-96
2023/09/27 13:19:09;;;;;;;;;;;;;;;;;;;;;
2023/09/27 13:21:35;;;;;;;1.02;0.95;;;;;;;30.16;60.81;100274.00;5244926;27;36745;-96
2023/09/27 13:24:02;;;;;;;0.40;0.28;;;;;;;30.30;60.81;100265.34;5240329;27;20079;-96
2023/09/27 13:26:48;;;;;;;;;;;;;;;;;;;;;
2023/09/27 13:29:14;;;;;;;5.85;0.60;;;;;;;30.28;60.82;100266.47;5245827;27;35360;-96
2023/09/27 13:31:44;;;;;;;0.40;0.40;;;;;;;30.27;60.82;100257.56;5240139;27;20077;-96
2023/09/27 13:34:30;;;;;;;0.82;0.82;;;;;;;30.18;60.81;100263.94;5281546;27;20065;-96
2023/09/27 13:37:19;;;;;;;0.55;0.52;;;;;;;30.22;60.81;100258.06;5304333;27;20071;-96
2023/09/27 13:40:21;;;;;;;1.45;0.60;;;;;;;30.18;60.80;100251.34;5292643;27;20052;-96
2023/09/27 13:46:24;;;;;;;0.30;0.30;;;;;;;29.81;60.79;100249.00;5303520;26;20697;-96
2023/09/27 13:49:18;;;;;;;2.65;1.48;;;;;;;29.69;60.78;100255.66;5251925;27;20067;-96
2023/09/27 13:51:49;;;;;;;1.37;0.82;;;;;;;29.92;60.79;100251.41;5290578;27;20088;-96
2023/09/27 13:54:20;;;;;;;1.10;0.57;;;;;;;29.88;60.80;100249.22;5287777;27;20095;-96
2023/09/27 13:56:46;;;;;;;0.85;0.40;;;;;;;29.86;60.79;100246.69;5289043;27;20071;-96
2023/09/27 13:59:19;;;;;;;0.60;0.50;;;;;;;29.72;60.79;100254.50;5268686;27;20053;-96
2023/09/27 14:01:57;;;;;;;0.70;0.70;;;;;;;29.65;60.79;100243.56;5292656;27;20037;-96
2023/09/27 14:04:59;;;;;;;;;;;;;;;;;;;;;
2023/09/27 14:07:28;;;;;;;2.00;1.08;;;;;;;29.83;60.80;100240.81;5311322;27;34407;-96
2023/09/27 14:10:13;;;;;;;0.28;0.22;;;;;;;29.63;60.79;100235.66;5288652;27;20098;-96
2023/09/27 14:13:19;;;;;;;0.40;0.28;;;;;;;29.70;60.78;100243.91;5273793;27;20049;-96
2023/09/27 14:15:46;;;;;;;1.37;0.62;;;;;;;29.60;60.78;100227.94;5287266;27;20437;-96
2023/09/27 14:18:14;;;;;;;2.65;1.25;;;;;;;29.61;60.78;100239.53;5287520;27;20060;-96
2023/09/27 14:20:48;;;;;;;4.93;0.70;;;;;;;29.49;60.78;100238.09;5287427;27;20057;-96
2023/09/27 14:23:14;;;;;;;0.45;0.40;;;;;;;29.52;60.79;100235.94;5271245;27;20064;-96
2023/09/27 14:26:24;;;;;;;;;;;;;;;;;;;;;
2023/09/27 14:29:06;;;;;;;0.77;0.77;;;;;;;29.52;60.78;100229.72;5327940;27;20025;-96
2023/09/27 14:31:33;;;;;;;0.15;0.15;;;;;;;29.57;60.79;100219.34;5290321;27;20073;-96
2023/09/27 14:34:06;;;;;;;0.37;0.30;;;;;;;29.46;60.77;100222.31;5292981;27;20021;-96
2023/09/27 14:36:35;;;;;;;0.30;0.30;;;;;;;29.42;60.78;100221.78;5292006;27;20119;-96
2023/09/27 14:39:12;;;;;;;1.15;1.10;;;;;;;29.46;60.77;100220.47;5271304;27;20029;-96
2023/09/27 14:41:58;;;;;;;0.75;0.75;;;;;;;29.36;60.77;100216.22;5316503;27;20031;-96
2023/09/27 14:44:27;;;;;;;;;;;;;;;29.28;60.77;100217.81;5301531;27;20028;-96
2023/09/27 14:47:00;;;;;;;0.95;0.47;;;;;;;29.37;60.78;100216.06;5337558;26;19950;-95
2023/09/27 14:49:27;;;;;;;0.60;0.60;;;;;;;29.34;60.77;100216.37;5336251;26;20105;-96
2023/09/27 14:51:56;;;;;;;0.60;0.55;;;;;;;29.21;60.76;100211.41;5295884;26;20056;-96
2023/09/27 14:54:27;;;;;;;0.68;0.68;;;;;;;29.40;60.78;100209.53;5295526;26;20021;-96
2023/09/27 14:56:56;;;;;;;0.65;0.30;;;;;;;29.20;60.77;100222.31;5311797;26;20056;-96
2023/09/27 14:59:56;;;;;;;0.73;0.73;;;;;;;29.13;60.76;100219.41;5294017;26;20805;-96
2023/09/27 15:02:25;;;;;;;0.47;0.30;;;;;;;29.07;60.76;100211.97;5304257;26;20069;-96
2023/09/27 15:04:54;;;;;;;0.20;0.20;;;;;;;29.06;60.76;100209.44;5311336;26;20072;-96
2023/09/27 15:07:37;;;;;;;1.02;0.60;;;;;;;29.03;60.75;100213.28;5295777;26;20056;-96
2023/09/27 15:10:10;;;;;;;5.50;0.62;;;;;;;29.10;60.77;100210.81;5322528;26;20064;-96
2023/09/27 15:12:39;;;;;;;0.25;0.20;;;;;;;28.98;60.75;100218.28;5315202;26;20060;-96
2023/09/27 15:15:11;;;;;;;0.60;0.28;;;;;;;28.80;60.75;100212.06;5292421;26;20102;-96
2023/09/27 15:17:42;;;;;;;3.85;1.98;;;;;;;28.86;60.75;100208.78;5295089;26;20029;-96
2023/09/27 15:20:08;;;;;;;0.65;0.57;;;;;;;28.82;60.75;100204.72;5290505;26;20064;-96
2023/09/27 15:22:33;;;;;;;0.37;0.37;;;;;;;28.76;60.74;100208.03;5287042;26;20033;-96
2023/09/27 15:24:59;;;;;;;1.50;1.08;;;;;;;28.70;60.74;100209.50;5267889;27;20052;-96
2023/09/27 15:27:25;;;;;;;3.58;1.25;;;;;;;28.64;60.74;100205.59;5268323;27;20110;-96
2023/09/27 15:29:56;;;;;;;0.60;0.60;;;;;;;28.59;60.73;100207.88;5288658;27;20876;-96
2023/09/27 15:32:25;;;;;;;0.45;0.35;;;;;;;28.60;60.73;100201.53;5289307;27;20104;-96
2023/09/27 15:34:53;;;;;;;0.03;0.03;;;;;;;28.72;60.74;100202.97;5271367;27;20067;-96
2023/09/27 15:37:29;;;;;;;0.28;0.28;;;;;;;28.63;60.74;100208.44;5269448;27;20651;-96
2023/09/27 15:40:00;;;;;;;2.25;1.27;;;;;;;28.61;60.74;100199.69;5271910;27;20076;-96
2023/09/27 15:42:25;;;;;;;18.40;0.57;;;;;;;28.33;60.72;100206.94;5271154;27;20110;-96
2023/09/27 15:44:51;;;;;;;0.17;0.15;;;;;;;28.39;60.73;100204.53;5268001;27;20077;-95
2023/09/27 15:47:20;;;;;;;0.88;0.85;;;;;;;28.31;60.72;100204.44;5270453;26;20159;-95
2023/09/27 15:49:45;;;;;;;1.17;0.82;;;;;;;28.20;60.71;100201.97;5291477;26;20060;-96
2023/09/27 15:52:11;;;;;;;1.02;0.62;;;;;;;27.87;60.70;100213.25;5289129;26;20330;-96
2023/09/27 15:54:41;;;;;;;0.25;0.20;;;;;;;27.83;60.70;100204.69;5307411;26;20138;-96
2023/09/27 15:57:06;;;;;;;2.00;1.30;;;;;;;27.78;60.70;100202.47;5290794;26;20056;-96
2023/09/27 15:59:32;;;;;;;0.20;0.20;;;;;;;27.69;60.69;100206.03;5291435;26;20056;-96
2023/09/27 16:02:06;;;;;;;0.47;0.45;;;;;;;27.55;60.68;100211.00;5291737;26;20087;-96
2023/09/27 16:04:35;;;;;;;0.95;0.95;;;;;;;27.42;60.68;100209.47;5291061;26;20075;-96
2023/09/27 16:07:01;;;;;;;0.57;0.57;;;;;;;27.28;60.68;100203.78;5290590;26;20078;-96
2023/09/27 16:09:32;;;;;;;1.67;1.10;;;;;;;27.14;60.67;100205.06;5289707;26;21217;-96
2023/09/27 16:11:57;;;;;;;1.10;0.25;;;;;;;27.16;60.66;100213.78;5290271;26;20066;-96
2023/09/27 16:14:30;;;;;;;0.25;0.25;;;;;;;26.90;60.65;100216.19;5291457;26;20041;-96
2023/09/27 16:17:06;;;;;;;11.50;0.90;;;;;;;26.81;60.65;100215.22;5310881;26;20060;-96
2023/09/27 16:19:53;;;;;;;;;;;;;;;;;;;;;
2023/09/27 16:22:19;;;;;;;0.10;0.10;;;;;;;26.72;60.64;100212.53;5310902;26;35243;-96
2023/09/27 16:24:48;;;;;;;1.25;0.57;;;;;;;26.58;60.63;100211.97;5289050;26;20045;-96
2023/09/27 16:27:21;;;;;;;2.83;0.97;;;;;;;26.56;60.64;100216.63;5289433;26;20075;-96
2023/09/27 16:29:47;;;;;;;0.68;0.68;;;;;;;26.22;60.61;100210.78;5287808;26;20694;-92
2023/09/27 16:32:12;;;;;;;0.10;0.10;;;;;;;26.02;60.61;100225.06;5287559;26;20060;-94